Time;durP1;ratioP1;P1;durP2;ratioP2;P2;SDS_P1;SDS_P2;PMS_P1;PMS_P2;Temp;Humidity;BMP_temperature;BMP_pressure;BME280_temperature;BME280_humidity;BME280_pressure;Samples;Min_cycle;Max_cycle;Signal;HPM_P1;HPM_P2
2022/08/15 00:00:16;;;;;;;2.00;1.90;;;27.20;1.00;;;;;;5111392;28;20039;-56
2022/08/15 00:02:44;;;;;;;2.47;2.38;;;27.10;1.00;;;;;;5110837;28;20016;-56
2022/08/15 00:05:14;;;;;;;3.75;2.53;;;27.10;1.00;;;;;;5111374;28;20027;-56
2022/08/15 00:07:40;;;;;;;2.55;2.30;;;27.10;1.00;;;;;;5110271;28;20461;-56
2022/08/15 00:10:07;;;;;;;3.22;2.28;;;27.10;1.00;;;;;;5111320;28;20077;-54
2022/08/15 00:12:34;;;;;;;3.05;2.40;;;27.10;1.00;;;;;;5110490;28;20015;-54
2022/08/15 00:15:01;;;;;;;3.08;2.25;;;27.10;1.00;;;;;;5111239;28;20023;-52
2022/08/15 00:17:28;;;;;;;3.58;2.63;;;27.10;1.00;;;;;;5110681;28;20081;-53
2022/08/15 00:19:54;;;;;;;2.45;2.20;;;27.00;1.00;;;;;;5111138;28;20020;-55
2022/08/15 00:22:20;;;;;;;3.08;2.55;;;27.00;1.00;;;;;;5108623;28;20019;-53
2022/08/15 00:24:49;;;;;;;2.95;2.50;;;27.00;1.00;;;;;;5110214;28;20389;-55
2022/08/15 00:27:14;;;;;;;3.88;2.58;;;27.00;1.00;;;;;;5110325;28;20133;-55
2022/08/15 00:29:41;;;;;;;3.40;2.30;;;26.90;1.00;;;;;;5111103;28;20012;-56
2022/08/15 00:32:16;;;;;;;2.65;2.25;;;26.90;1.00;;;;;;5110399;28;20023;-54
2022/08/15 00:34:42;;;;;;;3.97;2.60;;;26.90;1.00;;;;;;5110963;28;20043;-50
2022/08/15 00:37:08;;;;;;;2.40;2.30;;;26.90;1.00;;;;;;5110385;28;20481;-52
2022/08/15 00:39:34;;;;;;;1.92;1.83;;;26.90;1.00;;;;;;5110969;28;20042;-50
2022/08/15 00:42:03;;;;;;;2.83;2.38;;;26.80;1.00;;;;;;5109064;28;20034;-54
2022/08/15 00:44:34;;;;;;;2.22;1.77;;;26.80;1.00;;;;;;5059438;28;1470425;-52
2022/08/15 00:47:07;;;;;;;2.35;1.83;;;26.70;1.00;;;;;;5099996;28;20479;-55
2022/08/15 00:49:34;;;;;;;2.17;2.03;;;26.80;1.00;;;;;;5111635;28;20011;-54
2022/08/15 00:52:28;;;;;;;1.92;1.70;;;26.70;1.00;;;;;;5110538;28;20023;-52
2022/08/15 00:55:00;;;;;;;3.10;2.00;;;26.70;1.00;;;;;;5107548;28;20019;-54
2022/08/15 00:57:41;;;;;;;1.73;1.63;;;26.70;1.00;;;;;;5110879;28;20069;-54
2022/08/15 01:00:13;;;;;;;3.03;2.10;;;26.70;1.00;;;;;;5111855;28;20380;-55
2022/08/15 01:02:40;;;;;;;2.63;1.90;;;26.70;1.00;;;;;;5110069;28;20035;-54
2022/08/15 01:05:09;;;;;;;2.53;2.33;;;26.70;1.00;;;;;;5103549;28;20027;-54
2022/08/15 01:07:35;;;;;;;1.98;1.83;;;26.70;1.00;;;;;;5112874;28;20054;-56
2022/08/15 01:10:01;;;;;;;1.85;1.75;;;26.50;1.00;;;;;;5114406;28;20041;-54
2022/08/15 01:12:27;;;;;;;2.38;1.65;;;26.60;1.00;;;;;;5113117;28;20329;-55
2022/08/15 01:15:08;;;;;;;1.85;1.70;;;26.60;1.00;;;;;;5112207;28;20035;-53
2022/08/15 01:17:34;;;;;;;2.00;1.90;;;26.60;1.00;;;;;;5114026;28;20485;-52
2022/08/15 01:20:20;;;;;;;2.50;2.30;;;26.50;1.00;;;;;;5114234;28;20070;-54
2022/08/15 01:23:16;;;;;;;3.13;1.75;;;26.40;1.00;;;;;;5102287;28;20027;-53
2022/08/15 01:25:41;;;;;;;1.83;1.73;;;26.50;1.00;;;;;;5114099;28;20046;-53
2022/08/15 01:28:15;;;;;;;2.13;1.70;;;26.50;1.00;;;;;;5114644;28;20035;-54
2022/08/15 01:30:45;;;;;;;1.92;1.83;;;26.50;1.00;;;;;;5113798;28;20034;-55
2022/08/15 01:33:11;;;;;;;3.15;2.13;;;26.50;1.00;;;;;;5115202;28;20381;-56
2022/08/15 01:35:38;;;;;;;2.13;1.98;;;26.50;1.00;;;;;;5113844;28;20080;-58
2022/08/15 01:38:12;;;;;;;1.88;1.67;;;26.50;1.00;;;;;;5107604;28;20099;-57
2022/08/15 01:41:15;;;;;;;1.77;1.52;;;26.50;1.00;;;;;;5112594;28;20389;-54
2022/08/15 01:43:51;;;;;;;2.30;2.10;;;26.50;1.00;;;;;;5114519;28;20051;-53
2022/08/15 01:46:20;;;;;;;2.38;1.63;;;26.40;1.00;;;;;;5104271;28;20032;-52
2022/08/15 01:48:50;;;;;;;2.05;1.95;;;26.30;1.00;;;;;;5113760;28;20080;-55
2022/08/15 01:51:17;;;;;;;1.77;1.65;;;26.30;1.00;;;;;;5111724;28;20110;-56
2022/08/15 01:53:58;;;;;;;4.18;2.00;;;26.30;1.00;;;;;;5093732;28;20381;-55
2022/08/15 01:56:29;;;;;;;1.55;1.40;;;26.30;1.00;;;;;;5095146;28;20040;-56
2022/08/15 01:58:55;;;;;;;2.15;1.80;;;26.20;1.00;;;;;;5093969;28;20095;-52
2022/08/15 02:01:46;;;;;;;2.35;1.77;;;26.20;1.00;;;;;;5096826;28;20174;-54
2022/08/15 02:04:14;;;;;;;3.58;1.90;;;26.20;1.00;;;;;;5112760;28;20032;-55
2022/08/15 02:06:42;;;;;;;1.88;1.77;;;26.20;1.00;;;;;;5113507;28;20095;-53
2022/08/15 02:09:12;;;;;;;1.95;1.83;;;26.20;1.00;;;;;;5114275;28;20039;-56
2022/08/15 02:11:38;;;;;;;2.63;1.95;;;26.10;1.00;;;;;;5113081;28;20027;-55
2022/08/15 02:14:04;;;;;;;6.30;2.17;;;26.10;1.00;;;;;;5114186;28;20081;-51
2022/08/15 02:16:35;;;;;;;1.90;1.60;;;26.10;1.00;;;;;;5113196;28;20082;-53
2022/08/15 02:19:05;;;;;;;1.90;1.77;;;26.10;1.00;;;;;;5112791;28;20020;-55
2022/08/15 02:21:31;;;;;;;1.73;1.63;;;26.10;1.00;;;;;;5113116;28;20500;-55
2022/08/15 02:23:58;;;;;;;1.88;1.63;;;26.10;1.00;;;;;;5112751;28;20433;-53
2022/08/15 02:26:24;;;;;;;1.90;1.80;;;26.00;1.00;;;;;;5094229;28;20043;-53
2022/08/15 02:28:50;;;;;;;1.90;1.80;;;26.10;1.00;;;;;;5095399;28;20054;-53
2022/08/15 02:31:21;;;;;;;2.10;1.95;;;26.00;1.00;;;;;;5112828;28;20020;-53
2022/08/15 02:33:51;;;;;;;2.75;2.00;;;25.90;1.00;;;;;;5113862;28;20035;-56
2022/08/15 02:36:18;;;;;;;2.42;1.88;;;25.90;1.00;;;;;;5112106;28;20035;-50
2022/08/15 02:38:49;;;;;;;3.53;2.00;;;25.90;1.00;;;;;;5113779;28;20024;-53
2022/08/15 02:41:20;;;;;;;3.85;2.00;;;25.90;1.00;;;;;;5112620;28;20357;-56
2022/08/15 02:43:46;;;;;;;3.50;2.28;;;25.90;1.00;;;;;;5112218;28;20047;-52
2022/08/15 02:46:16;;;;;;;2.45;2.22;;;25.90;1.00;;;;;;5112484;28;20118;-55
2022/08/15 02:48:42;;;;;;;4.88;2.25;;;25.80;1.00;;;;;;5113212;28;20023;-54
2022/08/15 02:51:10;;;;;;;2.17;1.98;;;25.80;1.00;;;;;;5112081;28;20377;-53
2022/08/15 02:53:36;;;;;;;2.20;2.00;;;25.80;1.00;;;;;;5113257;28;20492;-55
2022/08/15 02:56:06;;;;;;;1.90;1.80;;;25.80;1.00;;;;;;5112344;28;20012;-52
2022/08/15 02:58:33;;;;;;;1.98;1.50;;;25.80;1.00;;;;;;5113227;28;20030;-52
2022/08/15 03:00:59;;;;;;;2.13;1.80;;;25.70;1.00;;;;;;5107482;28;20404;-52
2022/08/15 03:03:26;;;;;;;2.00;1.90;;;25.70;1.00;;;;;;5112857;28;20020;-54
2022/08/15 03:05:52;;;;;;;2.05;1.85;;;25.70;1.00;;;;;;5112117;28;20466;-56
2022/08/15 03:08:20;;;;;;;2.80;2.25;;;25.70;1.00;;;;;;5112854;28;20085;-55
2022/08/15 03:10:46;;;;;;;2.00;1.90;;;25.70;1.00;;;;;;5112008;28;20019;-54
2022/08/15 03:13:15;;;;;;;5.50;1.90;;;25.70;1.00;;;;;;5113125;28;20038;-56
2022/08/15 03:15:48;;;;;;;4.40;2.28;;;25.50;1.00;;;;;;5112167;28;20055;-54
2022/08/15 03:18:15;;;;;;;6.10;1.77;;;25.50;1.00;;;;;;5112236;28;20023;-55
2022/08/15 03:20:43;;;;;;;2.00;1.90;;;25.50;1.00;;;;;;5111141;28;20065;-55
2022/08/15 03:23:09;;;;;;;1.90;1.80;;;25.50;1.00;;;;;;5108834;28;20031;-55
2022/08/15 03:25:43;;;;;;;2.85;1.92;;;25.50;1.00;;;;;;5112316;28;20015;-55
2022/08/15 03:28:09;;;;;;;3.22;2.25;;;25.50;1.00;;;;;;5112577;28;20040;-54
2022/08/15 03:30:36;;;;;;;2.45;2.22;;;25.50;1.00;;;;;;5091026;28;20484;-55
2022/08/15 03:33:03;;;;;;;1.80;1.70;;;25.50;1.00;;;;;;5112675;28;20038;-51
2022/08/15 03:35:32;;;;;;;1.67;1.58;;;25.50;1.00;;;;;;5111515;28;20065;-51
2022/08/15 03:37:59;;;;;;;1.67;1.58;;;25.50;1.00;;;;;;5112556;28;20397;-53
2022/08/15 03:40:25;;;;;;;2.17;1.92;;;25.40;1.00;;;;;;5110916;28;20019;-52
2022/08/15 03:42:52;;;;;;;2.20;2.00;;;25.40;1.00;;;;;;5112902;28;20028;-55
2022/08/15 03:45:18;;;;;;;4.90;2.25;;;25.30;1.00;;;;;;5111335;28;20118;-53
2022/08/15 03:47:44;;;;;;;2.63;2.42;;;25.40;1.00;;;;;;5112305;28;20042;-53
2022/08/15 03:50:12;;;;;;;4.70;2.10;;;25.30;1.00;;;;;;5111453;28;20485;-56
2022/08/15 03:52:48;;;;;;;5.07;2.28;;;25.30;1.00;;;;;;5098768;28;20028;-55
2022/08/15 03:55:14;;;;;;;3.90;2.20;;;25.30;1.00;;;;;;5092989;28;20023;-52
2022/08/15 03:57:39;;;;;;;3.88;1.95;;;25.30;1.00;;;;;;5112243;28;20028;-53
2022/08/15 04:00:07;;;;;;;2.75;2.10;;;25.30;1.00;;;;;;5112314;28;20073;-55
2022/08/15 04:02:34;;;;;;;2.40;2.20;;;25.30;1.00;;;;;;5111064;28;20047;-54
2022/08/15 04:05:00;;;;;;;2.55;2.35;;;25.30;1.00;;;;;;5111196;28;20522;-53
2022/08/15 04:07:27;;;;;;;4.07;2.10;;;25.30;1.00;;;;;;5090142;28;20055;-54
2022/08/15 04:09:52;;;;;;;3.05;2.78;;;25.30;1.00;;;;;;5112104;28;20508;-52
2022/08/15 04:12:35;;;;;;;2.22;2.10;;;25.30;1.00;;;;;;5104509;28;20213;-54
2022/08/15 04:15:05;;;;;;;3.65;2.78;;;25.30;1.00;;;;;;5093749;28;20031;-55
2022/08/15 04:17:31;;;;;;;3.13;2.58;;;25.30;1.00;;;;;;5111138;28;20485;-54
2022/08/15 04:19:57;;;;;;;2.28;2.08;;;25.30;1.00;;;;;;5111864;28;20032;-55
2022/08/15 04:22:36;;;;;;;2.45;2.15;;;25.20;1.00;;;;;;5111093;28;20081;-54
2022/08/15 04:25:18;;;;;;;2.47;2.22;;;25.20;1.00;;;;;;5112081;28;20023;-55
2022/08/15 04:27:46;;;;;;;4.18;2.40;;;25.20;1.00;;;;;;5102598;28;20032;-51
2022/08/15 04:30:12;;;;;;;4.35;2.30;;;25.20;1.00;;;;;;5111818;28;20023;-55
2022/08/15 04:32:38;;;;;;;4.55;3.00;;;25.20;1.00;;;;;;5111116;28;20035;-55
2022/08/15 04:35:05;;;;;;;3.45;3.15;;;25.20;1.00;;;;;;5111828;28;20082;-55
2022/08/15 04:37:30;;;;;;;2.65;2.45;;;25.20;1.00;;;;;;5111133;28;20024;-55
2022/08/15 04:39:56;;;;;;;4.03;2.80;;;25.20;1.00;;;;;;5111982;28;20031;-54
2022/08/15 04:42:24;;;;;;;2.65;2.45;;;25.20;1.00;;;;;;5112066;28;20027;-55
2022/08/15 04:44:51;;;;;;;3.75;2.17;;;25.20;1.00;;;;;;5115571;28;20044;-54
2022/08/15 04:47:17;;;;;;;3.40;2.50;;;25.10;1.00;;;;;;5114738;28;20176;-53
2022/08/15 04:49:44;;;;;;;4.00;2.33;;;25.10;1.00;;;;;;5115555;28;20098;-55
2022/08/15 04:52:13;;;;;;;3.10;2.35;;;25.10;1.00;;;;;;5114859;28;20024;-55
2022/08/15 04:54:40;;;;;;;2.88;2.67;;;25.10;1.00;;;;;;5115086;28;20028;-52
2022/08/15 04:57:06;;;;;;;3.15;2.33;;;25.10;1.00;;;;;;5096984;28;20392;-56
2022/08/15 04:59:32;;;;;;;2.45;2.25;;;25.10;1.00;;;;;;5115501;28;20012;-52
2022/08/15 05:01:58;;;;;;;2.58;2.10;;;25.10;1.00;;;;;;5113623;28;20034;-54
2022/08/15 05:04:24;;;;;;;2.10;1.90;;;25.10;1.00;;;;;;5115117;28;20107;-55
2022/08/15 05:06:49;;;;;;;4.00;2.25;;;25.10;1.00;;;;;;5114244;28;20047;-55
2022/08/15 05:09:15;;;;;;;3.25;2.20;;;25.10;1.00;;;;;;5115388;28;20385;-52
2022/08/15 05:11:40;;;;;;;2.90;2.03;;;25.00;1.00;;;;;;5109509;28;20034;-55
2022/08/15 05:14:06;;;;;;;2.20;2.10;;;25.00;1.00;;;;;;5112778;28;20061;-55
2022/08/15 05:16:34;;;;;;;2.78;1.98;;;25.10;1.00;;;;;;5097342;28;20024;-55
2022/08/15 05:19:00;;;;;;;2.00;1.90;;;25.00;1.00;;;;;;5099726;28;20055;-55
2022/08/15 05:21:28;;;;;;;3.00;2.38;;;25.10;1.00;;;;;;5113500;28;20031;-54
2022/08/15 05:23:53;;;;;;;2.47;2.28;;;25.00;1.00;;;;;;5115047;28;20076;-55
2022/08/15 05:26:19;;;;;;;2.58;2.40;;;24.90;1.00;;;;;;5114189;28;20032;-54
2022/08/15 05:28:45;;;;;;;2.53;2.20;;;24.80;1.00;;;;;;5115240;28;20059;-53
2022/08/15 05:31:11;;;;;;;2.90;2.30;;;24.90;1.00;;;;;;5114124;28;20032;-52
2022/08/15 05:33:38;;;;;;;2.72;2.47;;;24.90;1.00;;;;;;5114921;28;20366;-55
2022/08/15 05:36:06;;;;;;;2.45;2.22;;;24.90;1.00;;;;;;5113957;28;20461;-55
2022/08/15 05:38:46;;;;;;;2.40;2.20;;;24.90;1.00;;;;;;5111660;28;20024;-54
2022/08/15 05:41:32;;;;;;;2.38;2.17;;;24.90;1.00;;;;;;5113904;28;20465;-55
2022/08/15 05:44:06;;;;;;;2.40;2.17;;;24.90;1.00;;;;;;5103443;28;20113;-55
2022/08/15 05:46:50;;;;;;;;;;;24.90;1.00;;;;;;5114911;28;20062;-56
2022/08/15 05:49:33;;;;;;;2.95;2.75;;;24.90;1.00;;;;;;5113800;28;19915;-57
2022/08/15 05:52:08;;;;;;;3.50;2.50;;;24.80;1.00;;;;;;5114462;28;20389;-55
2022/08/15 05:54:55;;;;;;;4.72;2.67;;;25.00;1.00;;;;;;5113429;28;20035;-56
2022/08/15 05:57:37;;;;;;;3.45;2.80;;;24.90;1.00;;;;;;5113463;28;20488;-55
2022/08/15 06:00:15;;;;;;;2.97;2.78;;;25.00;1.00;;;;;;5114502;28;20032;-56
2022/08/15 06:02:59;;;;;;;4.60;2.70;;;25.00;1.00;;;;;;5113743;28;20019;-56
2022/08/15 06:05:38;;;;;;;5.30;2.70;;;24.90;1.00;;;;;;5114162;28;20023;-55
2022/08/15 06:08:22;;;;;;;3.92;2.90;;;25.00;1.00;;;;;;5113561;28;20039;-53
2022/08/15 06:10:58;;;;;;;3.22;3.03;;;25.00;1.00;;;;;;5114200;28;20023;-56
2022/08/15 06:13:29;;;;;;;3.33;3.05;;;25.00;1.00;;;;;;5113419;28;20100;-55
2022/08/15 06:16:06;;;;;;;5.05;3.80;;;25.00;1.00;;;;;;5113864;28;20065;-56
2022/08/15 06:18:35;;;;;;;5.10;3.53;;;25.10;1.00;;;;;;5113200;28;20035;-52
2022/08/15 06:21:06;;;;;;;3.92;3.60;;;25.10;1.00;;;;;;5113396;28;20428;-56
2022/08/15 06:23:40;;;;;;;4.25;3.40;;;25.10;1.00;;;;;;5113317;28;20551;-53
2022/08/15 06:26:25;;;;;;;5.13;4.15;;;25.10;1.00;;;;;;5113613;28;20374;-53
2022/08/15 06:29:04;;;;;;;7.55;4.13;;;25.00;1.00;;;;;;5112826;28;20027;-54
2022/08/15 06:31:33;;;;;;;4.55;4.05;;;25.10;1.00;;;;;;5113620;28;20039;-52
2022/08/15 06:34:16;;;;;;;4.93;3.30;;;25.00;1.00;;;;;;5112980;28;20036;-57
2022/08/15 06:37:17;;;;;;;4.05;3.28;;;25.10;1.00;;;;;;5099431;28;20060;-52
2022/08/15 06:40:20;;;;;;;3.85;3.55;;;25.10;1.00;;;;;;5110442;28;20078;-56
2022/08/15 06:42:46;;;;;;;3.78;3.47;;;25.10;1.00;;;;;;5113092;28;20073;-52
2022/08/15 06:45:22;;;;;;;4.78;3.60;;;25.10;1.00;;;;;;5111439;28;20430;-56
2022/08/15 06:47:58;;;;;;;3.63;3.30;;;25.10;1.00;;;;;;5112902;28;20043;-55
2022/08/15 06:50:38;;;;;;;3.92;3.63;;;25.20;1.00;;;;;;5099209;28;20023;-53
2022/08/15 06:53:13;;;;;;;3.63;3.08;;;25.20;1.00;;;;;;5094972;28;20401;-54
2022/08/15 06:55:56;;;;;;;3.50;3.20;;;25.20;1.00;;;;;;5113355;28;20019;-55
2022/08/15 06:58:38;;;;;;;4.18;3.53;;;25.20;1.00;;;;;;5112565;28;20027;-52
2022/08/15 07:01:19;;;;;;;5.63;4.13;;;25.20;1.00;;;;;;5113328;28;20020;-56
2022/08/15 07:03:58;;;;;;;3.65;3.35;;;25.20;1.00;;;;;;5106776;28;20070;-56
2022/08/15 07:06:49;;;;;;;5.47;3.58;;;25.30;1.00;;;;;;5099324;28;20028;-55
2022/08/15 07:09:38;;;;;;;4.22;3.85;;;25.30;1.00;;;;;;5112415;28;20032;-56
2022/08/15 07:12:12;;;;;;;4.00;3.70;;;25.30;1.00;;;;;;5103503;28;20032;-54
2022/08/15 07:14:49;;;;;;;3.83;3.53;;;25.40;1.00;;;;;;5094592;28;20039;-52
2022/08/15 07:17:27;;;;;;;3.47;3.17;;;25.50;1.00;;;;;;5111447;28;20028;-56
2022/08/15 07:19:54;;;;;;;3.30;3.00;;;25.50;1.00;;;;;;5098682;28;20020;-56
2022/08/15 07:22:20;;;;;;;4.28;2.83;;;25.50;1.00;;;;;;5112279;28;20035;-54
2022/08/15 07:24:54;;;;;;;3.28;2.75;;;25.50;1.00;;;;;;5112553;28;20099;-53
2022/08/15 07:27:32;;;;;;;4.22;3.28;;;25.50;1.00;;;;;;5111694;28;20757;-56
2022/08/15 07:32:58;;;;;;;4.75;2.88;;;25.60;1.00;;;;;;5112282;28;20027;-53
2022/08/15 07:35:33;;;;;;;3.53;3.22;;;25.60;1.00;;;;;;5108389;28;20469;-54
2022/08/15 07:38:09;;;;;;;7.30;3.40;;;25.60;1.00;;;;;;5111643;28;20028;-57
2022/08/15 07:40:41;;;;;;;3.70;2.85;;;25.70;1.00;;;;;;5112690;28;20024;-55
2022/08/15 07:43:26;;;;;;;3.70;2.95;;;25.70;1.00;;;;;;5111771;28;20469;-55
2022/08/15 07:46:04;;;;;;;;;;;25.80;1.00;;;;;;5092563;28;20036;-55
2022/08/15 07:48:32;;;;;;;4.07;3.55;;;25.80;1.00;;;;;;5106629;28;20006;-57
2022/08/15 07:51:23;;;;;;;5.55;3.33;;;25.70;1.00;;;;;;5109080;28;20081;-58
2022/08/15 07:54:20;;;;;;;3.78;2.97;;;25.90;1.00;;;;;;5106132;28;20043;-56
2022/08/15 07:56:54;;;;;;;5.50;3.42;;;25.90;1.00;;;;;;5104755;28;20370;-54
2022/08/15 07:59:23;;;;;;;3.75;3.35;;;25.90;1.00;;;;;;5093562;28;20054;-57
2022/08/15 08:02:01;;;;;;;4.45;3.60;;;26.00;1.00;;;;;;5111489;28;20031;-55
2022/08/15 08:04:29;;;;;;;4.18;3.80;;;26.00;1.00;;;;;;5112510;28;20109;-57
2022/08/15 08:07:26;;;;;;;4.30;3.60;;;26.00;1.00;;;;;;5093174;28;20096;-58
2022/08/15 08:10:03;;;;;;;4.47;3.92;;;26.00;1.00;;;;;;5111718;28;20042;-58
2022/08/15 08:12:56;;;;;;;6.80;5.47;;;26.10;1.00;;;;;;5111501;28;20073;-55
2022/08/15 08:15:44;;;;;;;5.25;4.75;;;26.10;1.00;;;;;;5110597;28;20059;-55
2022/08/15 08:18:17;;;;;;;7.50;4.47;;;26.20;1.00;;;;;;5114973;28;20024;-57
2022/08/15 08:20:52;;;;;;;6.13;4.38;;;26.20;1.00;;;;;;5115612;28;20054;-55
2022/08/15 08:23:31;;;;;;;5.72;5.15;;;26.30;1.00;;;;;;5116386;28;20020;-54
2022/08/15 08:26:09;;;;;;;4.40;3.85;;;26.30;1.00;;;;;;5104915;28;20146;-57
2022/08/15 08:28:52;;;;;;;4.85;4.45;;;26.30;1.00;;;;;;5116051;28;20051;-56
2022/08/15 08:31:38;;;;;;;5.45;4.95;;;26.40;1.00;;;;;;5115169;28;20439;-58
2022/08/15 08:34:13;;;;;;;4.50;4.00;;;26.40;1.00;;;;;;5116176;28;20020;-57
2022/08/15 08:36:55;;;;;;;4.85;4.35;;;26.50;1.00;;;;;;5114964;28;20035;-57
2022/08/15 08:39:35;;;;;;;6.75;4.95;;;26.40;1.00;;;;;;5108247;28;20020;-54
2022/08/15 08:42:29;;;;;;;5.50;5.10;;;26.50;1.00;;;;;;5114774;28;20513;-57
2022/08/15 08:45:10;;;;;;;6.30;5.80;;;26.60;1.00;;;;;;5107071;28;20497;-57
2022/08/15 08:47:49;;;;;;;5.25;4.63;;;26.70;1.00;;;;;;5097188;28;20036;-55
2022/08/15 08:50:24;;;;;;;7.35;4.35;;;26.70;1.00;;;;;;5115641;28;20016;-55
2022/08/15 08:53:28;;;;;;;4.55;4.07;;;26.80;1.00;;;;;;5115334;28;20027;-56
2022/08/15 08:56:19;;;;;;;4.43;4.10;;;26.90;1.00;;;;;;5114605;28;20026;-56
2022/08/15 08:58:54;;;;;;;5.10;4.60;;;26.90;1.00;;;;;;5104165;28;20020;-54
2022/08/15 09:01:24;;;;;;;6.22;5.13;;;26.80;1.00;;;;;;5108401;28;20032;-57
2022/08/15 09:03:56;;;;;;;5.95;4.47;;;26.90;1.00;;;;;;5113369;28;20111;-57
2022/08/15 09:06:25;;;;;;;5.22;3.80;;;26.90;1.00;;;;;;5107110;28;20043;-56
2022/08/15 09:09:05;;;;;;;7.25;4.72;;;27.00;1.00;;;;;;5115426;28;20122;-54
2022/08/15 09:11:40;;;;;;;4.03;3.72;;;27.00;1.00;;;;;;5114414;28;20031;-57
2022/08/15 09:14:28;;;;;;;5.40;4.90;;;27.10;1.00;;;;;;5115389;28;20504;-57
2022/08/15 09:17:02;;;;;;;6.03;4.30;;;27.00;1.00;;;;;;5113803;28;20055;-56
2022/08/15 09:19:39;;;;;;;4.93;4.63;;;27.00;1.00;;;;;;5115446;28;20034;-58
2022/08/15 09:22:05;;;;;;;4.38;3.97;;;27.10;1.00;;;;;;5114383;28;20028;-57
2022/08/15 09:24:31;;;;;;;6.60;6.00;;;27.20;1.00;;;;;;5115189;28;20027;-57
2022/08/15 09:27:27;;;;;;;5.05;4.57;;;27.30;1.00;;;;;;5109130;28;20046;-57
2022/08/15 09:30:04;;;;;;;5.88;3.90;;;27.30;1.00;;;;;;5107202;28;20354;-56
2022/08/15 09:32:54;;;;;;;5.75;4.75;;;27.30;1.00;;;;;;5110142;28;20019;-57
2022/08/15 09:35:26;;;;;;;4.70;4.20;;;27.50;1.00;;;;;;5114608;28;20088;-57
2022/08/15 09:38:06;;;;;;;4.90;3.75;;;27.40;1.00;;;;;;5113850;28;20358;-57
2022/08/15 09:40:59;;;;;;;4.15;3.85;;;27.40;1.00;;;;;;5114837;28;20073;-56
2022/08/15 09:43:39;;;;;;;7.63;4.20;;;27.50;1.00;;;;;;5106833;28;20031;-58
2022/08/15 09:46:27;;;;;;;3.47;3.28;;;27.60;1.00;;;;;;5113790;28;20897;-53
2022/08/15 09:49:12;;;;;;;5.93;4.00;;;27.60;1.00;;;;;;5114828;28;20031;-58
2022/08/15 09:51:58;;;;;;;3.35;3.05;;;27.60;1.00;;;;;;5102171;28;20038;-57
2022/08/15 09:54:28;;;;;;;3.08;2.80;;;27.70;1.00;;;;;;5113836;28;20023;-58
2022/08/15 09:57:25;;;;;;;4.65;3.15;;;27.80;1.00;;;;;;5114207;28;20385;-57
2022/08/15 10:00:19;;;;;;;3.45;3.00;;;27.80;1.00;;;;;;5100202;28;20034;-57
2022/08/15 10:02:49;;;;;;;3.55;3.25;;;27.80;1.00;;;;;;5113371;28;20024;-58
2022/08/15 10:05:48;;;;;;;3.80;3.50;;;27.90;1.00;;;;;;5114398;28;20023;-58
2022/08/15 10:08:14;;;;;;;3.40;3.10;;;28.00;1.00;;;;;;5067832;28;20146;-57
2022/08/15 10:11:07;;;;;;;6.78;3.75;;;28.00;1.00;;;;;;5114512;28;20047;-57
2022/08/15 10:13:45;;;;;;;4.13;3.85;;;28.00;1.00;;;;;;5101047;28;20020;-56
2022/08/15 10:16:36;;;;;;;3.55;3.22;;;28.00;1.00;;;;;;5097841;28;20104;-57
2022/08/15 10:19:08;;;;;;;3.30;3.10;;;28.10;1.00;;;;;;5113532;28;20392;-58
2022/08/15 10:21:39;;;;;;;2.95;2.75;;;28.20;1.00;;;;;;5113004;28;20047;-58
2022/08/15 10:24:28;;;;;;;3.55;2.55;;;28.20;1.00;;;;;;5114028;28;20052;-58
2022/08/15 10:27:07;;;;;;;3.28;2.92;;;28.30;1.00;;;;;;5112838;28;20421;-57
2022/08/15 10:29:33;;;;;;;2.65;2.30;;;28.40;1.00;;;;;;5113421;28;20023;-57
2022/08/15 10:32:01;;;;;;;3.28;2.67;;;28.40;1.00;;;;;;5113360;28;20383;-57
2022/08/15 10:34:37;;;;;;;3.33;3.03;;;28.50;1.00;;;;;;5112759;28;20055;-58
2022/08/15 10:37:51;;;;;;;2.95;2.63;;;28.60;1.00;;;;;;5113853;28;20034;-57
2022/08/15 10:40:41;;;;;;;4.07;2.90;;;28.60;1.00;;;;;;5059761;28;20066;-57
2022/08/15 10:43:38;;;;;;;3.22;2.92;;;28.70;1.00;;;;;;5113705;28;20038;-57
2022/08/15 10:46:41;;;;;;;2.70;2.53;;;28.80;1.00;;;;;;5106580;28;20037;-56
2022/08/15 10:49:30;;;;;;;3.65;3.05;;;28.80;1.00;;;;;;5113247;28;20024;-58
2022/08/15 10:51:58;;;;;;;3.00;2.80;;;28.70;1.00;;;;;;5104470;28;20508;-54
2022/08/15 10:54:55;;;;;;;3.33;3.08;;;28.90;1.00;;;;;;5113320;28;20031;-56
2022/08/15 10:57:22;;;;;;;3.13;2.90;;;29.00;1.00;;;;;;5107469;28;20028;-56
2022/08/15 10:59:52;;;;;;;7.25;3.65;;;29.10;1.00;;;;;;5111835;28;20393;-56
2022/08/15 11:02:47;;;;;;;4.35;3.28;;;29.10;1.00;;;;;;5113384;28;20028;-57
2022/08/15 11:05:16;;;;;;;3.63;3.33;;;29.20;1.00;;;;;;5100679;28;20069;-58
2022/08/15 11:07:55;;;;;;;2.72;2.55;;;29.20;1.00;;;;;;5113117;28;20032;-58
2022/08/15 11:10:23;;;;;;;3.20;2.90;;;29.10;1.00;;;;;;5112779;28;20364;-58
2022/08/15 11:12:52;;;;;;;2.63;2.42;;;29.20;1.00;;;;;;5113010;28;20349;-58
2022/08/15 11:15:25;;;;;;;3.47;3.28;;;29.30;1.00;;;;;;5112220;28;20028;-57
2022/08/15 11:18:00;;;;;;;3.97;3.05;;;29.60;1.00;;;;;;5111825;28;20019;-58
2022/08/15 11:20:36;;;;;;;3.42;3.13;;;29.80;1.00;;;;;;5111940;28;20019;-57
2022/08/15 11:23:01;;;;;;;3.78;3.47;;;30.00;1.00;;;;;;5112918;28;20098;-57
2022/08/15 11:25:33;;;;;;;3.28;2.97;;;30.00;1.00;;;;;;5112137;28;20172;-58
2022/08/15 11:28:03;;;;;;;4.05;3.28;;;30.00;1.00;;;;;;5112776;28;20047;-58
2022/08/15 11:30:33;;;;;;;3.53;3.22;;;30.30;1.00;;;;;;5112281;28;20093;-58
2022/08/15 11:33:21;;;;;;;5.20;3.78;;;30.30;1.00;;;;;;5112831;28;20027;-58
2022/08/15 11:35:48;;;;;;;5.07;3.28;;;30.20;1.00;;;;;;5111866;28;20027;-58
2022/08/15 11:38:18;;;;;;;3.65;3.03;;;30.20;1.00;;;;;;5112718;28;20073;-57
2022/08/15 11:40:52;;;;;;;4.10;3.80;;;30.20;1.00;;;;;;5111966;28;20084;-58
2022/08/15 11:43:17;;;;;;;;;;;30.50;1.00;;;;;;5112787;28;20039;-56
2022/08/15 11:45:49;;;;;;;3.80;3.50;;;30.60;1.00;;;;;;5111139;28;19923;-58
2022/08/15 11:48:26;;;;;;;4.18;3.88;;;30.70;1.00;;;;;;5111374;28;20493;-58
2022/08/15 11:51:06;;;;;;;3.90;3.60;;;31.00;1.00;;;;;;5111355;28;20069;-58
2022/08/15 11:53:39;;;;;;;3.70;3.40;;;31.30;1.00;;;;;;5112411;28;20027;-56
2022/08/15 11:56:04;;;;;;;3.97;3.42;;;31.40;1.00;;;;;;5111557;28;20385;-57
2022/08/15 11:58:36;;;;;;;3.83;3.50;;;31.60;1.00;;;;;;5112015;28;20076;-58
2022/08/15 12:01:27;;;;;;;3.85;3.65;;;32.00;1.00;;;;;;5110307;28;20027;-57
2022/08/15 12:04:04;;;;;;;4.18;3.88;;;31.80;1.00;;;;;;5093327;28;20020;-57
2022/08/15 12:06:40;;;;;;;4.57;4.18;;;31.60;1.00;;;;;;5095116;28;20040;-57
2022/08/15 12:09:10;;;;;;;4.88;4.38;;;32.40;1.00;;;;;;5110183;28;20453;-57
2022/08/15 12:11:42;;;;;;;5.05;4.05;;;32.50;1.00;;;;;;5111375;28;20024;-56
2022/08/15 12:14:21;;;;;;;4.53;4.13;;;33.20;1.00;;;;;;5112404;28;20028;-57
2022/08/15 12:16:51;;;;;;;5.13;4.20;;;35.30;1.00;;;;;;5093001;28;20494;-56
2022/08/15 12:19:29;;;;;;;4.15;3.92;;;36.80;1.00;;;;;;5112236;28;20026;-55
2022/08/15 12:22:00;;;;;;;4.72;4.35;;;37.00;1.00;;;;;;5111328;28;20029;-57
2022/08/15 12:24:29;;;;;;;4.82;4.47;;;36.20;1.00;;;;;;5112217;28;20142;-57
2022/08/15 12:27:01;;;;;;;5.30;4.47;;;36.40;1.00;;;;;;5111324;28;20369;-57
2022/08/15 12:29:28;;;;;;;5.20;4.38;;;36.70;1.00;;;;;;5112118;28;20016;-56
2022/08/15 12:31:54;;;;;;;4.90;4.65;;;38.90;1.00;;;;;;5109810;28;20028;-57
2022/08/15 12:34:24;;;;;;;5.07;4.68;;;39.40;1.00;;;;;;5112119;28;20086;-57
2022/08/15 12:36:49;;;;;;;5.40;4.90;;;37.90;1.00;;;;;;5110462;28;20020;-57
2022/08/15 12:39:16;;;;;;;4.88;4.68;;;37.20;1.00;;;;;;5112127;28;20034;-58
2022/08/15 12:41:45;;;;;;;5.20;4.90;;;37.30;1.00;;;;;;5111353;28;20027;-57
2022/08/15 12:44:28;;;;;;;5.53;5.13;;;37.60;1.00;;;;;;5111456;28;20373;-57
2022/08/15 12:46:56;;;;;;;5.68;5.20;;;37.50;1.00;;;;;;5110814;28;20073;-57
2022/08/15 12:49:22;;;;;;;6.13;5.72;;;37.80;1.00;;;;;;5110957;28;20040;-57
2022/08/15 12:51:48;;;;;;;5.82;5.53;;;38.80;1.00;;;;;;5111167;28;20040;-58
2022/08/15 12:54:14;;;;;;;6.25;5.75;;;39.30;1.00;;;;;;5111672;28;20115;-58
2022/08/15 12:56:41;;;;;;;6.18;5.68;;;39.80;1.00;;;;;;5111482;28;20123;-57
2022/08/15 12:59:07;;;;;;;6.57;6.15;;;40.30;1.00;;;;;;5111841;28;20028;-58
2022/08/15 13:01:35;;;;;;;6.90;6.30;;;41.00;1.00;;;;;;5092819;28;20454;-58
2022/08/15 13:04:05;;;;;;;5.93;5.47;;;40.60;1.00;;;;;;5113991;28;20035;-58
2022/08/15 13:06:42;;;;;;;6.07;5.75;;;40.00;1.00;;;;;;5113376;28;20038;-57
2022/08/15 13:09:09;;;;;;;6.15;5.60;;;38.50;1.00;;;;;;5115584;28;20051;-57
2022/08/15 13:11:36;;;;;;;5.85;5.60;;;38.00;1.00;;;;;;5114698;28;20015;-57
2022/08/15 13:14:03;;;;;;;5.88;5.47;;;40.20;1.00;;;;;;5114635;28;20106;-58
2022/08/15 13:16:30;;;;;;;5.75;5.45;;;42.20;1.00;;;;;;5114437;28;20028;-58
2022/08/15 13:18:57;;;;;;;6.35;6.05;;;44.60;1.00;;;;;;5115025;28;20412;-58
2022/08/15 13:24:07;;;;;;;6.20;5.80;;;48.30;1.00;;;;;;5105776;28;20112;-58
2022/08/15 13:26:38;;;;;;;6.75;6.35;;;48.10;1.00;;;;;;5114135;28;20051;-58
2022/08/15 13:29:04;;;;;;;6.75;6.30;;;49.50;99.90;;;;;;5101724;28;20019;-58
2022/08/15 13:31:29;;;;;;;6.60;6.30;;;48.70;99.90;;;;;;5114222;28;20081;-58
2022/08/15 13:33:55;;;;;;;7.35;6.85;;;47.80;1.00;;;;;;5114334;28;20427;-58
2022/08/15 13:36:22;;;;;;;6.78;6.40;;;47.20;1.00;;;;;;5114169;28;20103;-58